createdAt,value
2022-12-04T00:00:36.188Z,1.93
2022-12-04T00:01:36.166Z,1.92
2022-12-04T00:02:36.250Z,2.00
2022-12-04T00:03:36.128Z,1.89
2022-12-04T00:04:36.170Z,1.89
2022-12-04T00:05:36.082Z,1.92
2022-12-04T00:06:36.055Z,1.89
2022-12-04T00:07:36.105Z,1.89
2022-12-04T00:08:36.022Z,1.86
2022-12-04T00:09:35.997Z,1.92
2022-12-04T00:10:35.968Z,1.88
2022-12-04T00:11:35.947Z,1.92
2022-12-04T00:12:35.922Z,1.97
2022-12-04T00:13:35.903Z,1.86
2022-12-04T00:14:54.549Z,1.88
2022-12-04T00:15:35.856Z,1.86
2022-12-04T00:16:35.993Z,1.82
2022-12-04T00:17:35.812Z,1.85
2022-12-04T00:18:35.790Z,1.79
2022-12-04T00:19:35.774Z,1.78
2022-12-04T00:20:35.745Z,1.79
2022-12-04T00:21:35.725Z,1.79
2022-12-04T00:22:35.704Z,1.85
2022-12-04T00:23:35.683Z,1.76
2022-12-04T00:24:35.658Z,1.79
2022-12-04T00:25:40.938Z,1.88
2022-12-04T00:26:35.623Z,1.85
2022-12-04T00:27:35.594Z,1.86
2022-12-04T00:28:35.569Z,1.75
2022-12-04T00:29:35.547Z,1.85
2022-12-04T00:30:35.525Z,1.84
2022-12-04T00:31:35.565Z,1.88
2022-12-04T00:32:35.478Z,1.86
2022-12-04T00:33:35.457Z,1.82
2022-12-04T00:34:35.438Z,1.85
2022-12-04T00:35:35.426Z,1.85
2022-12-04T00:36:35.396Z,1.88
2022-12-04T00:37:35.369Z,1.88
2022-12-04T00:38:35.346Z,1.89
2022-12-04T00:39:35.327Z,1.89
2022-12-04T00:40:35.302Z,1.89
2022-12-04T00:41:35.281Z,2.00
2022-12-04T00:42:35.257Z,1.97
2022-12-04T00:43:35.238Z,2.05
2022-12-04T00:44:35.216Z,2.07
2022-12-04T00:45:35.280Z,2.03
2022-12-04T00:46:35.171Z,1.97
2022-12-04T00:47:35.150Z,1.98
2022-12-04T00:48:35.125Z,2.05
2022-12-04T00:49:35.109Z,2.01
2022-12-04T00:50:35.081Z,2.04
2022-12-04T00:51:35.060Z,2.04
2022-12-04T00:52:35.037Z,2.07
2022-12-04T00:53:35.014Z,2.03
2022-12-04T00:54:34.994Z,2.14
2022-12-04T00:55:34.968Z,2.01
2022-12-04T00:56:34.952Z,2.04
2022-12-04T00:57:34.927Z,2.08
2022-12-04T00:58:34.906Z,2.14
2022-12-04T00:59:34.882Z,2.12
2022-12-04T01:00:34.869Z,2.10
2022-12-04T01:01:34.937Z,2.12
2022-12-04T01:02:34.883Z,2.10
2022-12-04T01:03:34.852Z,2.14
2022-12-04T01:04:34.773Z,2.22
2022-12-04T01:05:34.749Z,2.15
2022-12-04T01:06:34.728Z,2.14
2022-12-04T01:07:40.700Z,2.10
2022-12-04T01:08:34.685Z,2.15
2022-12-04T01:09:34.659Z,2.18
2022-12-04T01:10:34.645Z,2.16
2022-12-04T01:11:34.619Z,2.16
2022-12-04T01:12:34.602Z,2.05
2022-12-04T01:13:34.575Z,2.08
2022-12-04T01:14:34.559Z,2.03
2022-12-04T01:15:34.537Z,2.00
2022-12-04T01:16:34.549Z,2.00
2022-12-04T01:17:34.486Z,2.01
2022-12-04T01:18:34.467Z,2.00
2022-12-04T01:19:34.444Z,1.92
2022-12-04T01:20:34.423Z,1.89
2022-12-04T01:21:34.398Z,1.95
2022-12-04T01:22:34.377Z,1.92
2022-12-04T01:23:34.352Z,1.95
2022-12-04T01:24:34.337Z,1.97
2022-12-04T01:25:34.307Z,1.86
2022-12-04T01:26:34.287Z,1.89
2022-12-04T01:27:34.264Z,1.88
2022-12-04T01:28:34.249Z,1.92
2022-12-04T01:29:34.220Z,1.88
2022-12-04T01:30:34.197Z,1.86
2022-12-04T01:31:34.225Z,1.89
2022-12-04T01:32:34.159Z,1.88
2022-12-04T01:33:34.134Z,1.89
2022-12-04T01:34:34.122Z,1.92
2022-12-04T01:35:34.089Z,1.89
2022-12-04T01:36:34.065Z,1.85
2022-12-04T01:37:34.049Z,1.92
2022-12-04T01:38:34.023Z,1.88
2022-12-04T01:39:33.997Z,1.93
2022-12-04T01:40:33.977Z,1.92
2022-12-04T01:41:33.952Z,1.92
2022-12-04T01:42:33.932Z,1.95
2022-12-04T01:43:33.910Z,2.07
2022-12-04T01:44:33.893Z,2.01
2022-12-04T01:45:33.919Z,2.00
2022-12-04T01:46:33.846Z,2.05
2022-12-04T01:47:33.820Z,2.01
2022-12-04T01:48:33.805Z,2.15
2022-12-04T01:49:33.776Z,2.01
2022-12-04T01:50:33.755Z,2.05
2022-12-04T01:51:33.734Z,2.08
2022-12-04T01:52:33.713Z,2.04
2022-12-04T01:53:33.689Z,2.04
2022-12-04T01:54:33.668Z,2.07
2022-12-04T01:55:33.643Z,2.08
2022-12-04T01:56:33.626Z,2.04
2022-12-04T01:57:33.599Z,2.00
2022-12-04T01:58:33.579Z,2.03
2022-12-04T01:59:33.555Z,2.01
2022-12-04T02:00:33.540Z,2.00
2022-12-04T02:01:33.620Z,2.00
2022-12-04T02:02:33.554Z,2.14
2022-12-04T02:03:33.469Z,2.12
2022-12-04T02:04:33.454Z,2.03
2022-12-04T02:05:33.430Z,2.15
2022-12-04T02:06:33.409Z,2.03
2022-12-04T02:07:33.419Z,2.08
2022-12-04T02:08:33.358Z,2.15
2022-12-04T02:09:33.339Z,2.03
2022-12-04T02:10:33.314Z,2.18
2022-12-04T02:11:33.297Z,2.12
2022-12-04T02:12:33.271Z,2.12
2022-12-04T02:13:33.247Z,2.12
2022-12-04T02:14:33.227Z,2.14
2022-12-04T02:15:33.204Z,2.05
2022-12-04T02:16:33.224Z,2.07
2022-12-04T02:17:33.161Z,2.12
2022-12-04T02:18:33.142Z,2.08
2022-12-04T02:19:33.116Z,2.15
2022-12-04T02:20:33.096Z,2.10
2022-12-04T02:21:33.075Z,2.21
2022-12-04T02:22:33.053Z,2.15
2022-12-04T02:23:33.027Z,2.22
2022-12-04T02:24:33.009Z,2.18
2022-12-04T02:25:32.991Z,2.18
2022-12-04T02:26:32.963Z,2.21
2022-12-04T02:27:32.938Z,2.23
2022-12-04T02:28:32.917Z,2.22
2022-12-04T02:29:32.897Z,2.26
2022-12-04T02:30:32.933Z,2.22
2022-12-04T02:31:32.849Z,2.26
2022-12-04T02:32:32.836Z,2.30
2022-12-04T02:33:32.811Z,2.28
2022-12-04T02:34:32.789Z,2.22
2022-12-04T02:35:32.764Z,2.26
2022-12-04T02:36:32.745Z,2.25
2022-12-04T02:37:32.719Z,2.21
2022-12-04T02:38:32.698Z,2.28
2022-12-04T02:39:32.675Z,2.23
2022-12-04T02:40:32.655Z,2.15
2022-12-04T02:41:32.632Z,2.16
2022-12-04T02:42:32.614Z,2.25
2022-12-04T02:43:32.588Z,2.19
2022-12-04T02:44:32.568Z,2.25
2022-12-04T02:45:32.590Z,2.19
2022-12-04T02:46:32.586Z,2.26
2022-12-04T02:47:32.502Z,2.25
2022-12-04T02:48:32.486Z,2.28
2022-12-04T02:49:32.458Z,2.26
2022-12-04T02:50:32.437Z,2.30
2022-12-04T02:51:32.413Z,2.30
2022-12-04T02:52:32.393Z,2.34
2022-12-04T02:53:32.372Z,2.37
2022-12-04T02:54:32.349Z,2.41
2022-12-04T02:55:32.324Z,2.40
2022-12-04T02:56:32.306Z,2.39
2022-12-04T02:57:32.287Z,2.46
2022-12-04T02:58:32.265Z,2.46
2022-12-04T02:59:32.239Z,2.41
2022-12-04T03:00:32.218Z,2.41
2022-12-04T03:01:32.233Z,2.40
2022-12-04T03:02:32.227Z,2.36
2022-12-04T03:03:32.155Z,2.36
2022-12-04T03:04:32.136Z,2.39
2022-12-04T03:05:32.108Z,2.26
2022-12-04T03:06:32.088Z,2.32
2022-12-04T03:07:32.091Z,2.25
2022-12-04T03:08:32.043Z,2.23
2022-12-04T03:09:32.021Z,2.30
2022-12-04T03:10:32.000Z,2.25
2022-12-04T03:11:31.976Z,2.25
2022-12-04T03:12:31.958Z,2.26
2022-12-04T03:13:31.940Z,2.37
2022-12-04T03:14:31.912Z,2.30
2022-12-04T03:15:31.890Z,2.36
2022-12-04T03:16:31.896Z,2.37
2022-12-04T03:17:31.846Z,2.37
2022-12-04T03:18:32.108Z,2.30
2022-12-04T03:19:31.806Z,2.41
2022-12-04T03:20:31.790Z,2.40
2022-12-04T03:21:31.757Z,2.40
2022-12-04T03:22:31.738Z,2.41
2022-12-04T03:23:31.713Z,2.37
2022-12-04T03:24:31.693Z,2.39
2022-12-04T03:25:31.670Z,2.37
2022-12-04T03:26:31.650Z,2.36
2022-12-04T03:27:31.626Z,2.37
2022-12-04T03:28:31.608Z,2.39
2022-12-04T03:29:31.590Z,2.40
2022-12-04T03:30:31.609Z,2.39
2022-12-04T03:31:31.543Z,2.37
2022-12-04T03:32:31.522Z,2.43
2022-12-04T03:33:31.496Z,2.46
2022-12-04T03:34:31.476Z,2.51
2022-12-04T03:35:31.453Z,2.52
2022-12-04T03:36:31.436Z,2.44
2022-12-04T03:37:31.409Z,2.52
2022-12-04T03:38:31.389Z,2.44
2022-12-04T03:39:31.367Z,2.50
2022-12-04T03:40:31.346Z,2.47
2022-12-04T03:41:31.320Z,2.41
2022-12-04T03:42:31.300Z,2.43
2022-12-04T03:43:31.281Z,2.52
2022-12-04T03:44:31.258Z,2.44
2022-12-04T03:45:31.236Z,2.52
2022-12-04T03:46:31.306Z,2.51
2022-12-04T03:47:31.194Z,2.46
2022-12-04T03:48:31.179Z,2.52
2022-12-04T03:49:31.147Z,2.44
2022-12-04T03:50:31.128Z,2.55
2022-12-04T03:51:31.106Z,2.52
2022-12-04T03:52:31.090Z,2.50
2022-12-04T03:53:31.061Z,2.58
2022-12-04T03:54:31.039Z,2.52
2022-12-04T03:55:31.022Z,2.54
2022-12-04T03:56:30.998Z,2.57
2022-12-04T03:57:30.980Z,2.58
2022-12-04T03:58:30.952Z,2.52
2022-12-04T03:59:30.935Z,2.55
2022-12-04T04:00:30.912Z,2.55
2022-12-04T04:01:30.931Z,2.57
2022-12-04T04:02:30.948Z,2.55
2022-12-04T04:03:30.843Z,2.57
2022-12-04T04:04:30.824Z,2.52
2022-12-04T04:05:30.800Z,2.58
2022-12-04T04:06:30.788Z,2.51
2022-12-04T04:07:35.284Z,2.57
2022-12-04T04:08:30.883Z,2.62
2022-12-04T04:09:30.715Z,2.69
2022-12-04T04:10:30.704Z,2.69
2022-12-04T04:11:30.670Z,2.58
2022-12-04T04:12:30.650Z,2.69
2022-12-04T04:13:30.627Z,2.64
2022-12-04T04:14:30.608Z,2.68
2022-12-04T04:15:30.603Z,2.70
2022-12-04T04:16:30.564Z,2.64
2022-12-04T04:17:36.456Z,2.68
2022-12-04T04:18:30.526Z,2.69
2022-12-04T04:19:30.497Z,2.70
2022-12-04T04:20:30.480Z,2.72
2022-12-04T04:21:30.455Z,2.68
2022-12-04T04:22:30.435Z,2.69
2022-12-04T04:23:30.417Z,2.75
2022-12-04T04:24:30.397Z,2.64
2022-12-04T04:25:30.366Z,2.69
2022-12-04T04:26:30.348Z,2.70
2022-12-04T04:27:30.325Z,2.72
2022-12-04T04:28:30.307Z,2.73
2022-12-04T04:29:30.285Z,2.70
2022-12-04T04:30:30.260Z,2.61
2022-12-04T04:31:30.347Z,2.69
2022-12-04T04:32:30.219Z,2.68
2022-12-04T04:33:30.196Z,2.68
2022-12-04T04:34:30.175Z,2.69
2022-12-04T04:35:30.155Z,2.70
2022-12-04T04:36:30.134Z,2.70
2022-12-04T04:37:30.108Z,2.70
2022-12-04T04:38:30.091Z,2.70
2022-12-04T04:39:30.069Z,2.70
2022-12-04T04:40:30.053Z,2.73
2022-12-04T04:41:30.023Z,2.75
2022-12-04T04:42:30.002Z,2.68
2022-12-04T04:43:29.980Z,2.70
2022-12-04T04:44:29.960Z,2.75
2022-12-04T04:45:29.934Z,2.75
2022-12-04T04:46:29.997Z,2.75
2022-12-04T04:47:29.892Z,2.70
2022-12-04T04:48:29.876Z,2.68
2022-12-04T04:49:29.850Z,2.68
2022-12-04T04:50:29.835Z,2.75
2022-12-04T04:51:29.808Z,2.72
2022-12-04T04:52:29.788Z,2.72
2022-12-04T04:53:29.764Z,2.75
2022-12-04T04:54:29.743Z,2.69
2022-12-04T04:55:29.721Z,2.70
2022-12-04T04:56:29.707Z,2.75
2022-12-04T04:57:29.692Z,2.65
2022-12-04T04:58:29.659Z,2.73
2022-12-04T04:59:29.636Z,2.75
2022-12-04T05:00:29.616Z,2.68
2022-12-04T05:01:29.634Z,2.72
2022-12-04T05:02:29.598Z,2.70
2022-12-04T05:03:29.552Z,2.72
2022-12-04T05:04:29.529Z,2.72
2022-12-04T05:05:29.518Z,2.75
2022-12-04T05:06:29.485Z,2.77
2022-12-04T05:07:29.536Z,2.75
2022-12-04T05:08:29.444Z,2.75
2022-12-04T05:09:29.419Z,2.75
2022-12-04T05:10:29.397Z,2.72
2022-12-04T05:11:29.378Z,2.75
2022-12-04T05:12:29.354Z,2.75
2022-12-04T05:13:29.334Z,2.77
2022-12-04T05:14:29.312Z,2.75
2022-12-04T05:15:29.291Z,2.73
2022-12-04T05:16:29.338Z,2.75
2022-12-04T05:17:29.249Z,2.79
2022-12-04T05:18:29.226Z,2.73
2022-12-04T05:19:29.205Z,2.76
2022-12-04T05:20:29.183Z,2.75
2022-12-04T05:21:29.161Z,2.73
2022-12-04T05:22:29.137Z,2.77
2022-12-04T05:23:29.119Z,2.76
2022-12-04T05:24:29.097Z,2.79
2022-12-04T05:25:29.079Z,2.73
2022-12-04T05:26:29.052Z,2.72
2022-12-04T05:27:29.034Z,2.75
2022-12-04T05:28:29.017Z,2.76
2022-12-04T05:29:34.279Z,2.72
2022-12-04T05:30:28.988Z,2.76
2022-12-04T05:31:29.010Z,2.73
2022-12-04T05:32:28.924Z,2.75
2022-12-04T05:33:28.904Z,2.76
2022-12-04T05:34:28.892Z,2.77
2022-12-04T05:35:28.861Z,2.75
2022-12-04T05:36:28.847Z,2.75
2022-12-04T05:37:28.817Z,2.76
2022-12-04T05:38:28.803Z,2.77
2022-12-04T05:39:28.772Z,2.79
2022-12-04T05:40:28.753Z,2.73
2022-12-04T05:41:28.731Z,2.75
2022-12-04T05:42:28.710Z,2.76
2022-12-04T05:43:28.688Z,2.76
2022-12-04T05:44:28.670Z,2.75
2022-12-04T05:45:28.642Z,2.76
2022-12-04T05:46:28.666Z,2.75
2022-12-04T05:47:28.604Z,2.76
2022-12-04T05:48:28.579Z,2.75
2022-12-04T05:49:28.558Z,2.77
2022-12-04T05:50:28.537Z,2.75
2022-12-04T05:51:28.518Z,2.76
2022-12-04T05:52:28.494Z,2.79
2022-12-04T05:53:28.473Z,2.76
2022-12-04T05:54:28.452Z,2.77
2022-12-04T05:55:28.431Z,2.76
2022-12-04T05:56:28.408Z,2.73
2022-12-04T05:57:29.980Z,2.79
2022-12-04T05:58:28.363Z,2.76
2022-12-04T05:59:28.345Z,2.75
2022-12-04T06:00:28.327Z,2.80
2022-12-04T06:01:28.300Z,2.76
2022-12-04T06:02:28.330Z,2.77
2022-12-04T06:03:28.305Z,2.77
2022-12-04T06:04:28.236Z,2.75
2022-12-04T06:05:28.214Z,2.82
2022-12-04T06:06:28.191Z,2.79
2022-12-04T06:07:28.212Z,2.82
2022-12-04T06:08:28.153Z,2.82
2022-12-04T06:09:28.129Z,2.90
2022-12-04T06:10:28.105Z,2.72
2022-12-04T06:11:28.095Z,2.79
2022-12-04T06:12:28.067Z,2.80
2022-12-04T06:13:28.041Z,2.79
2022-12-04T06:14:28.019Z,2.85
2022-12-04T06:15:28.000Z,2.91
2022-12-04T06:16:28.035Z,2.91
2022-12-04T06:17:27.957Z,2.88
2022-12-04T06:18:27.934Z,2.88
2022-12-04T06:19:27.915Z,2.87
2022-12-04T06:20:27.960Z,2.87
2022-12-04T06:21:27.871Z,2.91
2022-12-04T06:22:27.850Z,2.94
2022-12-04T06:23:27.828Z,2.85
2022-12-04T06:24:27.806Z,2.91
2022-12-04T06:25:27.785Z,2.87
2022-12-04T06:26:27.767Z,2.90
2022-12-04T06:27:28.644Z,2.91
2022-12-04T06:28:27.717Z,2.80
2022-12-04T06:29:27.701Z,2.83
2022-12-04T06:30:27.676Z,2.88
2022-12-04T06:31:27.709Z,2.88
2022-12-04T06:32:27.638Z,2.93
2022-12-04T06:33:27.611Z,2.91
2022-12-04T06:34:27.613Z,2.88
2022-12-04T06:35:27.569Z,2.91
2022-12-04T06:36:27.549Z,2.90
2022-12-04T06:37:27.529Z,2.93
2022-12-04T06:38:27.504Z,2.87
2022-12-04T06:39:27.483Z,2.85
2022-12-04T06:40:27.470Z,2.88
2022-12-04T06:41:27.439Z,2.98
2022-12-04T06:42:27.424Z,2.93
2022-12-04T06:43:27.398Z,2.85
2022-12-04T06:44:27.376Z,2.85
2022-12-04T06:45:27.417Z,2.91
2022-12-04T06:46:27.413Z,2.88
2022-12-04T06:47:27.313Z,2.88
2022-12-04T06:48:27.299Z,2.87
2022-12-04T06:49:27.272Z,2.87
2022-12-04T06:50:27.249Z,2.91
2022-12-04T06:51:27.226Z,2.88
2022-12-04T06:52:27.204Z,2.94
2022-12-04T06:53:27.184Z,2.91
2022-12-04T06:54:27.162Z,2.93
2022-12-04T06:55:27.142Z,2.87
2022-12-04T06:56:27.118Z,2.93
2022-12-04T06:57:27.095Z,2.95
2022-12-04T06:58:27.076Z,2.91
2022-12-04T06:59:27.053Z,2.87
2022-12-04T07:00:27.033Z,2.93
2022-12-04T07:01:27.106Z,2.93
2022-12-04T07:02:27.101Z,2.97
2022-12-04T07:03:26.967Z,3.00
2022-12-04T07:04:27.034Z,2.95
2022-12-04T07:05:26.925Z,2.94
2022-12-04T07:06:26.906Z,2.85
2022-12-04T07:07:27.010Z,2.97
2022-12-04T07:08:26.862Z,3.00
2022-12-04T07:09:26.841Z,2.98
2022-12-04T07:10:26.819Z,3.01
2022-12-04T07:11:26.797Z,2.90
2022-12-04T07:12:26.774Z,3.00
2022-12-04T07:13:26.764Z,3.00
2022-12-04T07:14:26.731Z,3.01
2022-12-04T07:15:26.710Z,3.01
2022-12-04T07:16:26.796Z,3.00
2022-12-04T07:17:26.667Z,2.97
2022-12-04T07:18:26.648Z,2.97
2022-12-04T07:19:26.626Z,2.98
2022-12-04T07:20:26.609Z,2.94
2022-12-04T07:21:26.589Z,3.01
2022-12-04T07:22:26.559Z,2.97
2022-12-04T07:23:26.541Z,3.00
2022-12-04T07:24:26.534Z,2.90
2022-12-04T07:25:26.496Z,2.98
2022-12-04T07:26:26.491Z,2.94
2022-12-04T07:27:26.457Z,2.88
2022-12-04T07:28:26.431Z,2.97
2022-12-04T07:29:26.411Z,2.94
2022-12-04T07:30:26.389Z,2.97
2022-12-04T07:31:26.437Z,3.00
2022-12-04T07:32:26.345Z,2.95
2022-12-04T07:33:26.324Z,2.97
2022-12-04T07:34:26.302Z,2.98
2022-12-04T07:35:26.281Z,2.98
2022-12-04T07:36:26.265Z,3.00
2022-12-04T07:37:26.240Z,2.97
2022-12-04T07:38:26.225Z,2.95
2022-12-04T07:39:26.198Z,2.88
2022-12-04T07:40:26.177Z,2.85
2022-12-04T07:41:26.156Z,2.95
2022-12-04T07:42:26.132Z,2.97
2022-12-04T07:43:26.113Z,3.00
2022-12-04T07:44:26.090Z,2.97
2022-12-04T07:45:26.069Z,3.00
2022-12-04T07:46:26.101Z,2.95
2022-12-04T07:47:26.027Z,2.95
2022-12-04T07:48:31.692Z,2.94
2022-12-04T07:49:25.981Z,2.97
2022-12-04T07:50:25.959Z,3.01
2022-12-04T07:51:25.941Z,3.06
2022-12-04T07:52:25.923Z,3.00
2022-12-04T07:53:25.897Z,3.00
2022-12-04T07:54:25.877Z,3.00
2022-12-04T07:55:25.854Z,3.08
2022-12-04T07:56:25.834Z,2.97
2022-12-04T07:57:25.812Z,3.09
2022-12-04T07:58:25.789Z,3.09
2022-12-04T07:59:25.768Z,3.09
2022-12-04T08:00:25.746Z,3.00
2022-12-04T08:01:25.760Z,3.11
2022-12-04T08:02:25.701Z,3.03
2022-12-04T08:03:25.685Z,3.12
2022-12-04T08:04:25.724Z,3.03
2022-12-04T08:05:25.640Z,3.06
2022-12-04T08:06:25.622Z,3.03
2022-12-04T08:07:25.598Z,3.13
2022-12-04T08:08:25.589Z,3.12
2022-12-04T08:09:25.555Z,3.03
2022-12-04T08:10:25.535Z,3.08
2022-12-04T08:11:25.513Z,3.08
2022-12-04T08:12:25.489Z,3.06
2022-12-04T08:13:25.469Z,3.09
2022-12-04T08:14:25.450Z,3.06
2022-12-04T08:15:25.431Z,3.16
2022-12-04T08:16:25.440Z,3.09
2022-12-04T08:17:25.468Z,2.97
2022-12-04T08:18:25.365Z,3.11
2022-12-04T08:19:25.342Z,3.12
2022-12-04T08:20:25.320Z,3.09
2022-12-04T08:21:25.299Z,3.11
2022-12-04T08:22:25.621Z,3.11
2022-12-04T08:23:25.256Z,3.05
2022-12-04T08:24:25.239Z,2.98
2022-12-04T08:25:25.212Z,3.03
2022-12-04T08:26:25.189Z,3.05
2022-12-04T08:27:25.169Z,2.93
2022-12-04T08:28:25.149Z,2.95
2022-12-04T08:29:25.128Z,3.01
2022-12-04T08:30:25.124Z,3.03
2022-12-04T08:31:25.140Z,3.00
2022-12-04T08:32:25.067Z,3.05
2022-12-04T08:33:25.046Z,3.00
2022-12-04T08:34:25.021Z,3.03
2022-12-04T08:35:24.999Z,3.03
2022-12-04T08:36:24.976Z,3.01
2022-12-04T08:37:24.956Z,3.05
2022-12-04T08:38:24.936Z,3.08
2022-12-04T08:39:24.913Z,3.11
2022-12-04T08:40:24.910Z,3.11
2022-12-04T08:41:24.870Z,3.05
2022-12-04T08:42:24.849Z,3.09
2022-12-04T08:43:24.830Z,3.08
2022-12-04T08:44:24.809Z,3.01
2022-12-04T08:45:24.787Z,3.08
2022-12-04T08:46:25.028Z,3.01
2022-12-04T08:47:24.744Z,3.06
2022-12-04T08:48:24.719Z,3.11
2022-12-04T08:49:24.707Z,3.08
2022-12-04T08:50:24.676Z,3.09
2022-12-04T08:51:24.657Z,3.03
2022-12-04T08:52:24.635Z,3.12
2022-12-04T08:53:24.626Z,3.08
2022-12-04T08:54:24.592Z,3.08
2022-12-04T08:55:24.573Z,3.03
2022-12-04T08:56:24.555Z,2.98
2022-12-04T08:57:24.530Z,3.08
2022-12-04T08:58:24.507Z,3.09
2022-12-04T08:59:24.487Z,3.03
2022-12-04T09:00:24.483Z,3.06
2022-12-04T09:01:24.472Z,3.06
2022-12-04T09:02:24.419Z,3.08
2022-12-04T09:03:30.540Z,3.09
2022-12-04T09:04:24.438Z,3.16
2022-12-04T09:05:24.356Z,3.12
2022-12-04T09:06:24.357Z,3.13
2022-12-04T09:07:24.313Z,3.05
2022-12-04T09:08:24.328Z,3.06
2022-12-04T09:09:24.277Z,3.11
2022-12-04T09:10:24.247Z,3.00
2022-12-04T09:11:24.239Z,3.08
2022-12-04T09:12:24.228Z,3.13
2022-12-04T09:13:24.208Z,3.15
2022-12-04T09:14:24.167Z,3.09
2022-12-04T09:15:24.146Z,3.06
2022-12-04T09:16:24.178Z,3.12
2022-12-04T09:17:24.101Z,3.09
2022-12-04T09:18:24.079Z,3.18
2022-12-04T09:19:24.057Z,3.06
2022-12-04T09:20:24.034Z,3.13
2022-12-04T09:21:24.029Z,3.11
2022-12-04T09:22:24.004Z,3.13
2022-12-04T09:23:23.973Z,3.03
2022-12-04T09:24:23.952Z,3.08
2022-12-04T09:25:23.934Z,3.08
2022-12-04T09:26:23.910Z,3.09
2022-12-04T09:27:23.928Z,3.12
2022-12-04T09:28:23.874Z,3.12
2022-12-04T09:29:23.841Z,3.15
2022-12-04T09:30:23.820Z,3.11
2022-12-04T09:31:24.011Z,3.15
2022-12-04T09:32:23.813Z,3.18
2022-12-04T09:33:23.769Z,3.12
2022-12-04T09:34:23.775Z,3.03
2022-12-04T09:35:23.739Z,3.16
2022-12-04T09:36:23.697Z,3.16
2022-12-04T09:37:23.669Z,3.03
2022-12-04T09:38:23.652Z,3.01
2022-12-04T09:39:23.627Z,3.12
2022-12-04T09:40:23.611Z,2.98
2022-12-04T09:41:23.592Z,3.12
2022-12-04T09:42:23.586Z,3.06
2022-12-04T09:43:23.549Z,3.15
2022-12-04T09:44:23.532Z,3.06
2022-12-04T09:45:23.500Z,3.11
2022-12-04T09:46:23.553Z,3.15
2022-12-04T09:47:23.476Z,3.18
2022-12-04T09:48:23.444Z,3.18
2022-12-04T09:49:23.416Z,3.11
2022-12-04T09:50:23.395Z,3.11
2022-12-04T09:51:23.373Z,3.15
2022-12-04T09:52:23.351Z,3.09
2022-12-04T09:53:23.327Z,3.11
2022-12-04T09:54:23.310Z,3.16
2022-12-04T09:55:23.289Z,3.26
2022-12-04T09:56:23.267Z,3.22
2022-12-04T09:57:23.244Z,3.27
2022-12-04T09:58:23.225Z,3.30
2022-12-04T09:59:23.201Z,3.30
2022-12-04T10:00:23.187Z,3.30
2022-12-04T10:01:23.160Z,3.34
2022-12-04T10:02:23.214Z,3.40
2022-12-04T10:03:23.174Z,3.40
2022-12-04T10:04:23.153Z,3.33
2022-12-04T10:05:23.072Z,3.37
2022-12-04T10:06:23.059Z,3.37
2022-12-04T10:07:23.031Z,3.43
2022-12-04T10:08:23.096Z,3.43
2022-12-04T10:09:22.988Z,3.37
2022-12-04T10:10:23.027Z,3.43
2022-12-04T10:11:25.552Z,3.48
2022-12-04T10:12:22.926Z,3.34
2022-12-04T10:13:22.903Z,3.41
2022-12-04T10:14:22.963Z,3.40
2022-12-04T10:15:22.863Z,3.41
2022-12-04T10:16:22.962Z,3.45
2022-12-04T10:17:25.493Z,3.43
2022-12-04T10:18:22.825Z,3.45
2022-12-04T10:19:22.778Z,3.48
2022-12-04T10:20:22.841Z,3.53
2022-12-04T10:21:22.736Z,3.58
2022-12-04T10:22:22.716Z,3.49
2022-12-04T10:23:22.693Z,3.49
2022-12-04T10:24:22.677Z,3.50
2022-12-04T10:25:22.652Z,3.50
2022-12-04T10:26:22.636Z,3.55
2022-12-04T10:27:22.607Z,3.45
2022-12-04T10:28:22.590Z,3.49
2022-12-04T10:29:22.580Z,3.53
2022-12-04T10:30:22.648Z,3.48
2022-12-04T10:31:22.585Z,3.50
2022-12-04T10:32:22.524Z,3.49
2022-12-04T10:33:22.479Z,3.45
2022-12-04T10:34:22.459Z,3.43
2022-12-04T10:35:22.439Z,3.41
2022-12-04T10:36:22.437Z,3.53
2022-12-04T10:37:22.394Z,3.37
2022-12-04T10:38:22.376Z,3.41
2022-12-04T10:39:22.353Z,3.36
2022-12-04T10:40:22.356Z,3.37
2022-12-04T10:41:22.311Z,3.36
2022-12-04T10:42:22.291Z,3.46
2022-12-04T10:43:22.268Z,3.48
2022-12-04T10:44:22.248Z,3.49
2022-12-04T10:45:22.231Z,3.49
2022-12-04T10:46:22.299Z,3.49
2022-12-04T10:47:22.191Z,3.56
2022-12-04T10:48:22.179Z,3.52
2022-12-04T10:49:22.140Z,3.56
2022-12-04T10:50:22.129Z,3.52
2022-12-04T10:51:22.098Z,3.59
2022-12-04T10:52:22.078Z,3.52
2022-12-04T10:53:22.058Z,3.55
2022-12-04T10:54:22.066Z,3.61
2022-12-04T10:55:22.013Z,3.55
2022-12-04T10:56:21.998Z,3.55
2022-12-04T10:57:21.971Z,3.61
2022-12-04T10:58:21.968Z,3.58
2022-12-04T10:59:21.936Z,3.59
2022-12-04T11:00:21.910Z,3.63
2022-12-04T11:01:21.975Z,3.58
2022-12-04T11:02:22.008Z,3.58
2022-12-04T11:03:21.948Z,3.58
2022-12-04T11:04:21.829Z,3.64
2022-12-04T11:05:21.802Z,3.63
2022-12-04T11:06:21.787Z,3.61
2022-12-04T11:07:21.767Z,3.64
2022-12-04T11:08:21.806Z,3.66
2022-12-04T11:09:21.767Z,3.63
2022-12-04T11:10:21.699Z,3.63
2022-12-04T11:11:21.679Z,3.63
2022-12-04T11:12:21.664Z,3.68
2022-12-04T11:13:21.636Z,3.61
2022-12-04T11:14:21.613Z,3.66
2022-12-04T11:15:21.595Z,3.67
2022-12-04T11:16:21.649Z,3.67
2022-12-04T11:17:21.556Z,3.63
2022-12-04T11:18:21.530Z,3.67
2022-12-04T11:19:21.515Z,3.67
2022-12-04T11:20:21.543Z,3.66
2022-12-04T11:21:21.466Z,3.70
2022-12-04T11:22:21.447Z,3.70
2022-12-04T11:23:21.423Z,3.68
2022-12-04T11:24:21.408Z,3.71
2022-12-04T11:25:21.379Z,3.68
2022-12-04T11:26:21.360Z,3.59
2022-12-04T11:27:21.341Z,3.64
2022-12-04T11:28:40.997Z,3.66
2022-12-04T11:29:21.295Z,3.64
2022-12-04T11:30:21.282Z,3.68
2022-12-04T11:31:21.291Z,3.68
2022-12-04T11:32:21.235Z,3.59
2022-12-04T11:33:21.213Z,3.67
2022-12-04T11:34:21.190Z,3.61
2022-12-04T11:35:21.170Z,3.63
2022-12-04T11:36:21.154Z,3.61
2022-12-04T11:37:21.125Z,3.70
2022-12-04T11:38:21.110Z,3.68
2022-12-04T11:39:21.097Z,3.71
2022-12-04T11:40:21.069Z,3.64
2022-12-04T11:41:21.046Z,3.73
2022-12-04T11:42:21.024Z,3.67
2022-12-04T11:43:21.029Z,3.68
2022-12-04T11:44:20.981Z,3.73
2022-12-04T11:45:20.966Z,3.64
2022-12-04T11:46:21.000Z,3.66
2022-12-04T11:47:20.916Z,3.67
2022-12-04T11:48:20.895Z,3.71
2022-12-04T11:49:20.874Z,3.67
2022-12-04T11:50:20.856Z,3.78
2022-12-04T11:51:20.837Z,3.68
2022-12-04T11:52:20.834Z,3.66
2022-12-04T11:53:20.793Z,3.67
2022-12-04T11:54:20.770Z,3.66
2022-12-04T11:55:25.355Z,3.68
2022-12-04T11:56:20.731Z,3.70
2022-12-04T11:57:20.707Z,3.67
2022-12-04T11:58:20.689Z,3.68
2022-12-04T11:59:20.666Z,3.70
2022-12-04T12:00:20.649Z,3.68
2022-12-04T12:01:20.634Z,3.66
2022-12-04T12:02:20.668Z,3.73
2022-12-04T12:03:20.731Z,3.70
2022-12-04T12:04:20.564Z,3.68
2022-12-04T12:05:20.538Z,3.68
2022-12-04T12:06:20.522Z,3.68
2022-12-04T12:07:20.507Z,3.81
2022-12-04T12:08:20.483Z,3.68
2022-12-04T12:09:20.459Z,3.71
2022-12-04T12:10:20.434Z,3.81
2022-12-04T12:11:20.410Z,3.70
2022-12-04T12:12:20.394Z,3.74
2022-12-04T12:13:20.369Z,3.74
2022-12-04T12:14:20.353Z,3.81
2022-12-04T12:15:20.347Z,3.74
2022-12-04T12:16:20.342Z,3.66
2022-12-04T12:17:20.284Z,3.71
2022-12-04T12:18:21.031Z,3.81
2022-12-04T12:19:20.240Z,3.76
2022-12-04T12:20:20.253Z,3.70
2022-12-04T12:21:20.200Z,3.73
2022-12-04T12:22:20.184Z,3.77
2022-12-04T12:23:20.159Z,3.74
2022-12-04T12:24:20.144Z,3.81
2022-12-04T12:25:20.116Z,3.77
2022-12-04T12:26:20.111Z,3.78
2022-12-04T12:27:20.078Z,3.73
2022-12-04T12:28:20.055Z,3.82
2022-12-04T12:29:20.031Z,3.77
2022-12-04T12:30:20.022Z,3.73
2022-12-04T12:31:20.039Z,3.84
2022-12-04T12:32:20.028Z,3.81
2022-12-04T12:33:19.950Z,3.78
2022-12-04T12:34:19.930Z,3.81
2022-12-04T12:35:19.911Z,3.77
2022-12-04T12:36:19.888Z,3.88
2022-12-04T12:37:19.873Z,3.85
2022-12-04T12:38:19.846Z,3.84
2022-12-04T12:39:19.827Z,3.81
2022-12-04T12:40:19.811Z,3.81
2022-12-04T12:41:19.787Z,3.85
2022-12-04T12:42:19.765Z,3.88
2022-12-04T12:43:19.760Z,3.81
2022-12-04T12:44:19.735Z,3.88
2022-12-04T12:45:19.700Z,3.82
2022-12-04T12:46:19.741Z,3.85
2022-12-04T12:47:19.658Z,3.88
2022-12-04T12:48:19.652Z,3.89
2022-12-04T12:49:19.613Z,3.95
2022-12-04T12:50:19.600Z,3.85
2022-12-04T12:51:33.794Z,3.95
2022-12-04T12:52:19.556Z,3.86
2022-12-04T12:53:19.538Z,3.89
2022-12-04T12:54:19.512Z,3.88
2022-12-04T12:55:19.491Z,3.99
2022-12-04T12:56:19.474Z,3.88
2022-12-04T12:57:19.451Z,3.95
2022-12-04T12:58:19.430Z,3.88
2022-12-04T12:59:19.408Z,3.99
2022-12-04T13:00:19.388Z,3.86
2022-12-04T13:01:19.444Z,3.96
2022-12-04T13:02:19.365Z,3.86
2022-12-04T13:03:19.327Z,3.99
2022-12-04T13:04:19.304Z,3.95
2022-12-04T13:05:19.286Z,3.99
2022-12-04T13:06:19.263Z,3.88
2022-12-04T13:07:19.240Z,3.99
2022-12-04T13:08:19.297Z,3.92
2022-12-04T13:09:19.206Z,3.91
2022-12-04T13:10:19.179Z,3.91
2022-12-04T13:11:19.160Z,3.99
2022-12-04T13:12:19.145Z,3.99
2022-12-04T13:13:19.113Z,4.00
2022-12-04T13:14:19.097Z,3.88
2022-12-04T13:15:19.072Z,4.02
2022-12-04T13:16:19.107Z,3.86
2022-12-04T13:17:19.029Z,3.95
2022-12-04T13:18:19.010Z,4.00